sensor_id;sensor_type;location;lat;lon;timestamp;P1;durP1;ratioP1;P2;durP2;ratioP2
16033;SDS011;8121;51.418;6.998;2023-08-21T00:04:15;3.37;;;1.83;;
16033;SDS011;8121;51.418;6.998;2023-08-21T00:09:18;6.60;;;2.30;;
16033;SDS011;8121;51.418;6.998;2023-08-21T00:14:20;7.83;;;2.30;;
16033;SDS011;8121;51.418;6.998;2023-08-21T00:19:21;8.50;;;2.10;;
16033;SDS011;8121;51.418;6.998;2023-08-21T00:24:24;5.40;;;2.43;;
16033;SDS011;8121;51.418;6.998;2023-08-21T00:29:25;6.33;;;2.40;;
16033;SDS011;8121;51.418;6.998;2023-08-21T00:34:28;6.50;;;1.80;;
16033;SDS011;8121;51.418;6.998;2023-08-21T00:39:31;19.27;;;2.40;;
16033;SDS011;8121;51.418;6.998;2023-08-21T00:44:32;9.00;;;1.97;;
16033;SDS011;8121;51.418;6.998;2023-08-21T00:49:34;6.93;;;1.97;;
16033;SDS011;8121;51.418;6.998;2023-08-21T00:54:38;4.00;;;1.70;;
16033;SDS011;8121;51.418;6.998;2023-08-21T00:59:39;5.20;;;2.30;;
16033;SDS011;8121;51.418;6.998;2023-08-21T01:04:41;5.60;;;2.60;;
16033;SDS011;8121;51.418;6.998;2023-08-21T01:09:45;3.13;;;1.77;;
16033;SDS011;8121;51.418;6.998;2023-08-21T01:14:58;9.83;;;2.20;;
16033;SDS011;8121;51.418;6.998;2023-08-21T01:20:00;21.97;;;2.07;;
16033;SDS011;8121;51.418;6.998;2023-08-21T01:25:04;5.37;;;1.83;;
16033;SDS011;8121;51.418;6.998;2023-08-21T01:30:06;2.60;;;1.70;;
16033;SDS011;8121;51.418;6.998;2023-08-21T01:35:09;4.60;;;1.83;;
16033;SDS011;8121;51.418;6.998;2023-08-21T01:40:14;4.93;;;1.83;;
16033;SDS011;8121;51.418;6.998;2023-08-21T01:45:21;2.63;;;1.80;;
16033;SDS011;8121;51.418;6.998;2023-08-21T01:50:22;4.57;;;1.90;;
16033;SDS011;8121;51.418;6.998;2023-08-21T01:55:25;3.00;;;1.50;;
16033;SDS011;8121;51.418;6.998;2023-08-21T02:00:27;3.03;;;1.73;;
16033;SDS011;8121;51.418;6.998;2023-08-21T02:05:28;4.80;;;1.50;;
16033;SDS011;8121;51.418;6.998;2023-08-21T02:10:31;6.83;;;1.80;;
16033;SDS011;8121;51.418;6.998;2023-08-21T02:15:33;3.67;;;1.57;;
16033;SDS011;8121;51.418;6.998;2023-08-21T02:20:34;1.97;;;1.50;;
16033;SDS011;8121;51.418;6.998;2023-08-21T02:25:37;4.07;;;1.90;;
16033;SDS011;8121;51.418;6.998;2023-08-21T02:30:39;6.73;;;2.17;;
16033;SDS011;8121;51.418;6.998;2023-08-21T02:35:41;7.10;;;2.50;;
16033;SDS011;8121;51.418;6.998;2023-08-21T02:40:44;5.53;;;4.43;;
16033;SDS011;8121;51.418;6.998;2023-08-21T02:45:45;6.30;;;2.97;;
16033;SDS011;8121;51.418;6.998;2023-08-21T02:50:48;4.67;;;2.10;;
16033;SDS011;8121;51.418;6.998;2023-08-21T02:55:51;6.30;;;1.83;;
16033;SDS011;8121;51.418;6.998;2023-08-21T03:00:52;4.97;;;2.07;;
16033;SDS011;8121;51.418;6.998;2023-08-21T03:05:54;3.23;;;1.50;;
16033;SDS011;8121;51.418;6.998;2023-08-21T03:10:56;5.23;;;2.23;;
16033;SDS011;8121;51.418;6.998;2023-08-21T03:15:58;4.30;;;1.80;;
16033;SDS011;8121;51.418;6.998;2023-08-21T03:20:59;5.83;;;2.20;;
16033;SDS011;8121;51.418;6.998;2023-08-21T03:26:02;4.60;;;2.80;;
16033;SDS011;8121;51.418;6.998;2023-08-21T03:31:04;2.80;;;2.03;;
16033;SDS011;8121;51.418;6.998;2023-08-21T03:36:05;6.00;;;2.67;;
16033;SDS011;8121;51.418;6.998;2023-08-21T03:41:08;2.97;;;2.00;;
16033;SDS011;8121;51.418;6.998;2023-08-21T03:46:10;3.17;;;2.03;;
16033;SDS011;8121;51.418;6.998;2023-08-21T03:51:11;6.50;;;2.90;;
16033;SDS011;8121;51.418;6.998;2023-08-21T03:56:14;8.10;;;2.50;;
16033;SDS011;8121;51.418;6.998;2023-08-21T04:01:16;12.07;;;2.50;;
16033;SDS011;8121;51.418;6.998;2023-08-21T04:06:17;3.63;;;1.80;;
16033;SDS011;8121;51.418;6.998;2023-08-21T04:11:20;6.93;;;2.73;;
16033;SDS011;8121;51.418;6.998;2023-08-21T04:16:22;4.67;;;2.57;;
16033;SDS011;8121;51.418;6.998;2023-08-21T04:21:23;7.73;;;2.67;;
16033;SDS011;8121;51.418;6.998;2023-08-21T04:26:26;2.63;;;2.30;;
16033;SDS011;8121;51.418;6.998;2023-08-21T04:31:28;9.90;;;2.60;;
16033;SDS011;8121;51.418;6.998;2023-08-21T04:36:29;2.63;;;1.90;;
16033;SDS011;8121;51.418;6.998;2023-08-21T04:41:32;4.23;;;2.43;;
16033;SDS011;8121;51.418;6.998;2023-08-21T04:46:34;2.73;;;2.50;;
16033;SDS011;8121;51.418;6.998;2023-08-21T04:51:35;4.93;;;2.30;;
16033;SDS011;8121;51.418;6.998;2023-08-21T04:56:38;8.83;;;2.70;;
16033;SDS011;8121;51.418;6.998;2023-08-21T05:01:40;8.67;;;2.50;;
16033;SDS011;8121;51.418;6.998;2023-08-21T05:06:41;12.30;;;3.63;;
16033;SDS011;8121;51.418;6.998;2023-08-21T05:11:44;11.83;;;3.10;;
16033;SDS011;8121;51.418;6.998;2023-08-21T05:16:45;9.10;;;3.20;;
16033;SDS011;8121;51.418;6.998;2023-08-21T05:21:47;7.27;;;2.53;;
16033;SDS011;8121;51.418;6.998;2023-08-21T05:26:50;11.53;;;2.50;;
16033;SDS011;8121;51.418;6.998;2023-08-21T05:31:51;6.93;;;2.20;;
16033;SDS011;8121;51.418;6.998;2023-08-21T05:36:53;11.23;;;3.07;;
16033;SDS011;8121;51.418;6.998;2023-08-21T05:41:56;6.40;;;2.00;;
16033;SDS011;8121;51.418;6.998;2023-08-21T05:46:58;9.43;;;2.40;;
16033;SDS011;8121;51.418;6.998;2023-08-21T05:52:00;8.20;;;2.17;;
16033;SDS011;8121;51.418;6.998;2023-08-21T05:57:03;5.40;;;1.63;;
16033;SDS011;8121;51.418;6.998;2023-08-21T06:02:04;6.27;;;2.17;;
16033;SDS011;8121;51.418;6.998;2023-08-21T06:07:06;7.10;;;2.47;;
16033;SDS011;8121;51.418;6.998;2023-08-21T06:12:09;4.50;;;2.70;;
16033;SDS011;8121;51.418;6.998;2023-08-21T06:17:11;6.53;;;2.63;;
16033;SDS011;8121;51.418;6.998;2023-08-21T06:22:12;5.00;;;2.30;;
16033;SDS011;8121;51.418;6.998;2023-08-21T06:27:16;4.23;;;2.90;;
16033;SDS011;8121;51.418;6.998;2023-08-21T06:32:18;8.20;;;2.13;;
16033;SDS011;8121;51.418;6.998;2023-08-21T06:37:19;1.70;;;1.60;;
16033;SDS011;8121;51.418;6.998;2023-08-21T06:42:22;2.03;;;1.83;;
16033;SDS011;8121;51.418;6.998;2023-08-21T06:47:24;6.37;;;2.30;;
16033;SDS011;8121;51.418;6.998;2023-08-21T06:52:25;1.87;;;1.63;;
16033;SDS011;8121;51.418;6.998;2023-08-21T06:57:28;2.80;;;2.03;;
16033;SDS011;8121;51.418;6.998;2023-08-21T07:02:30;5.37;;;1.83;;
16033;SDS011;8121;51.418;6.998;2023-08-21T07:07:31;7.07;;;2.50;;
16033;SDS011;8121;51.418;6.998;2023-08-21T07:12:34;6.63;;;2.77;;
16033;SDS011;8121;51.418;6.998;2023-08-21T07:17:35;1.50;;;1.40;;
16033;SDS011;8121;51.418;6.998;2023-08-21T07:22:37;1.90;;;1.73;;
16033;SDS011;8121;51.418;6.998;2023-08-21T07:27:40;9.03;;;2.13;;
16033;SDS011;8121;51.418;6.998;2023-08-21T07:32:41;1.93;;;1.20;;
16033;SDS011;8121;51.418;6.998;2023-08-21T07:37:43;4.80;;;2.30;;
16033;SDS011;8121;51.418;6.998;2023-08-21T07:42:46;4.73;;;1.77;;
16033;SDS011;8121;51.418;6.998;2023-08-21T07:47:47;4.93;;;1.90;;
16033;SDS011;8121;51.418;6.998;2023-08-21T07:52:49;6.70;;;1.70;;
16033;SDS011;8121;51.418;6.998;2023-08-21T07:57:52;1.23;;;1.13;;
16033;SDS011;8121;51.418;6.998;2023-08-21T08:02:53;6.03;;;1.57;;
16033;SDS011;8121;51.418;6.998;2023-08-21T08:07:54;2.70;;;2.33;;
16033;SDS011;8121;51.418;6.998;2023-08-21T08:12:57;8.23;;;3.07;;
16033;SDS011;8121;51.418;6.998;2023-08-21T08:17:59;2.63;;;1.70;;
16033;SDS011;8121;51.418;6.998;2023-08-21T08:23:00;7.70;;;2.50;;
16033;SDS011;8121;51.418;6.998;2023-08-21T08:28:03;1.67;;;1.57;;
16033;SDS011;8121;51.418;6.998;2023-08-21T08:33:05;12.23;;;2.17;;
16033;SDS011;8121;51.418;6.998;2023-08-21T08:38:06;9.10;;;2.60;;
16033;SDS011;8121;51.418;6.998;2023-08-21T08:43:09;5.07;;;2.33;;
16033;SDS011;8121;51.418;6.998;2023-08-21T08:48:11;10.03;;;2.10;;
16033;SDS011;8121;51.418;6.998;2023-08-21T08:53:13;6.83;;;1.90;;
16033;SDS011;8121;51.418;6.998;2023-08-21T08:58:16;2.17;;;1.40;;
16033;SDS011;8121;51.418;6.998;2023-08-21T09:03:18;6.50;;;1.80;;
16033;SDS011;8121;51.418;6.998;2023-08-21T09:08:19;1.20;;;1.00;;
16033;SDS011;8121;51.418;6.998;2023-08-21T09:13:22;4.20;;;1.80;;
16033;SDS011;8121;51.418;6.998;2023-08-21T09:18:23;6.57;;;2.27;;
16033;SDS011;8121;51.418;6.998;2023-08-21T09:23:25;7.77;;;2.60;;
16033;SDS011;8121;51.418;6.998;2023-08-21T09:28:30;7.07;;;2.87;;
16033;SDS011;8121;51.418;6.998;2023-08-21T09:39:04;6.53;;;2.23;;
16033;SDS011;8121;51.418;6.998;2023-08-21T09:44:08;5.47;;;2.20;;
16033;SDS011;8121;51.418;6.998;2023-08-21T09:49:09;9.90;;;2.67;;
16033;SDS011;8121;51.418;6.998;2023-08-21T09:54:11;11.90;;;3.40;;
16033;SDS011;8121;51.418;6.998;2023-08-21T09:59:15;7.10;;;2.70;;
16033;SDS011;8121;51.418;6.998;2023-08-21T10:04:17;6.83;;;2.33;;
16033;SDS011;8121;51.418;6.998;2023-08-21T10:09:19;6.93;;;3.00;;
16033;SDS011;8121;51.418;6.998;2023-08-21T10:14:23;5.20;;;3.50;;
16033;SDS011;8121;51.418;6.998;2023-08-21T10:19:30;8.60;;;2.27;;
16033;SDS011;8121;51.418;6.998;2023-08-21T10:24:34;9.70;;;3.07;;
16033;SDS011;8121;51.418;6.998;2023-08-21T10:29:37;9.47;;;2.97;;
16033;SDS011;8121;51.418;6.998;2023-08-21T10:34:40;9.03;;;4.60;;
16033;SDS011;8121;51.418;6.998;2023-08-21T10:39:54;7.00;;;2.90;;
16033;SDS011;8121;51.418;6.998;2023-08-21T10:44:57;4.27;;;2.30;;
16033;SDS011;8121;51.418;6.998;2023-08-21T10:50:01;3.03;;;1.63;;
16033;SDS011;8121;51.418;6.998;2023-08-21T10:55:03;5.10;;;2.00;;
16033;SDS011;8121;51.418;6.998;2023-08-21T11:00:08;3.60;;;2.90;;
16033;SDS011;8121;51.418;6.998;2023-08-21T11:05:12;2.87;;;1.47;;
16033;SDS011;8121;51.418;6.998;2023-08-21T11:10:14;4.03;;;2.37;;
16033;SDS011;8121;51.418;6.998;2023-08-21T11:15:19;6.50;;;2.53;;
16033;SDS011;8121;51.418;6.998;2023-08-21T11:20:21;2.80;;;2.10;;
16033;SDS011;8121;51.418;6.998;2023-08-21T11:25:22;3.23;;;1.30;;
16033;SDS011;8121;51.418;6.998;2023-08-21T11:30:25;2.10;;;1.70;;
16033;SDS011;8121;51.418;6.998;2023-08-21T11:35:26;5.93;;;1.93;;
16033;SDS011;8121;51.418;6.998;2023-08-21T11:40:28;9.43;;;3.30;;
16033;SDS011;8121;51.418;6.998;2023-08-21T11:45:30;1.97;;;1.87;;
16033;SDS011;8121;51.418;6.998;2023-08-21T11:50:32;10.33;;;3.07;;
16033;SDS011;8121;51.418;6.998;2023-08-21T11:55:34;3.47;;;2.07;;
16033;SDS011;8121;51.418;6.998;2023-08-21T12:00:37;3.73;;;2.40;;
16033;SDS011;8121;51.418;6.998;2023-08-21T12:05:42;5.83;;;2.60;;
16033;SDS011;8121;51.418;6.998;2023-08-21T12:10:44;2.60;;;1.83;;
16033;SDS011;8121;51.418;6.998;2023-08-21T12:15:53;7.67;;;2.30;;
16033;SDS011;8121;51.418;6.998;2023-08-21T12:20:55;4.40;;;1.97;;
16033;SDS011;8121;51.418;6.998;2023-08-21T12:25:57;3.37;;;1.83;;
16033;SDS011;8121;51.418;6.998;2023-08-21T12:31:00;4.13;;;2.17;;
16033;SDS011;8121;51.418;6.998;2023-08-21T12:36:02;2.47;;;2.27;;
16033;SDS011;8121;51.418;6.998;2023-08-21T12:41:04;3.73;;;1.77;;
16033;SDS011;8121;51.418;6.998;2023-08-21T12:46:06;2.40;;;2.20;;
16033;SDS011;8121;51.418;6.998;2023-08-21T12:51:08;5.43;;;2.30;;
16033;SDS011;8121;51.418;6.998;2023-08-21T12:56:10;1.60;;;1.50;;
16033;SDS011;8121;51.418;6.998;2023-08-21T13:01:12;4.50;;;1.30;;
16033;SDS011;8121;51.418;6.998;2023-08-21T13:06:14;6.27;;;2.57;;
16033;SDS011;8121;51.418;6.998;2023-08-21T13:11:16;10.13;;;2.13;;
16033;SDS011;8121;51.418;6.998;2023-08-21T13:16:19;3.17;;;1.90;;
16033;SDS011;8121;51.418;6.998;2023-08-21T13:21:21;2.70;;;1.50;;
16033;SDS011;8121;51.418;6.998;2023-08-21T13:26:22;4.80;;;1.43;;
16033;SDS011;8121;51.418;6.998;2023-08-21T13:31:26;3.60;;;1.30;;
16033;SDS011;8121;51.418;6.998;2023-08-21T13:36:29;2.30;;;1.50;;
16033;SDS011;8121;51.418;6.998;2023-08-21T13:41:30;8.83;;;1.80;;
16033;SDS011;8121;51.418;6.998;2023-08-21T13:46:33;2.10;;;1.20;;
16033;SDS011;8121;51.418;6.998;2023-08-21T13:51:35;2.57;;;1.17;;
16033;SDS011;8121;51.418;6.998;2023-08-21T13:56:37;1.70;;;1.17;;
16033;SDS011;8121;51.418;6.998;2023-08-21T14:01:39;1.47;;;1.13;;
16033;SDS011;8121;51.418;6.998;2023-08-21T14:06:41;4.23;;;1.87;;
16033;SDS011;8121;51.418;6.998;2023-08-21T14:11:43;3.87;;;2.03;;
16033;SDS011;8121;51.418;6.998;2023-08-21T14:16:46;7.50;;;1.83;;
16033;SDS011;8121;51.418;6.998;2023-08-21T14:21:47;2.70;;;1.63;;
16033;SDS011;8121;51.418;6.998;2023-08-21T14:26:49;1.70;;;1.33;;
16033;SDS011;8121;51.418;6.998;2023-08-21T14:31:52;1.93;;;1.67;;
16033;SDS011;8121;51.418;6.998;2023-08-21T14:36:54;5.57;;;1.63;;
16033;SDS011;8121;51.418;6.998;2023-08-21T14:41:57;3.07;;;1.30;;
16033;SDS011;8121;51.418;6.998;2023-08-21T14:47:00;3.90;;;1.83;;
16033;SDS011;8121;51.418;6.998;2023-08-21T14:52:01;4.40;;;2.00;;
16033;SDS011;8121;51.418;6.998;2023-08-21T14:57:03;5.03;;;1.67;;
16033;SDS011;8121;51.418;6.998;2023-08-21T15:02:06;2.80;;;1.67;;
16033;SDS011;8121;51.418;6.998;2023-08-21T15:07:08;3.00;;;1.53;;
16033;SDS011;8121;51.418;6.998;2023-08-21T15:12:09;4.80;;;2.23;;
16033;SDS011;8121;51.418;6.998;2023-08-21T15:17:12;4.57;;;1.90;;
16033;SDS011;8121;51.418;6.998;2023-08-21T15:22:14;1.50;;;1.40;;
16033;SDS011;8121;51.418;6.998;2023-08-21T15:27:16;5.00;;;1.80;;
16033;SDS011;8121;51.418;6.998;2023-08-21T15:32:19;4.13;;;2.00;;
16033;SDS011;8121;51.418;6.998;2023-08-21T15:37:20;5.87;;;2.33;;
16033;SDS011;8121;51.418;6.998;2023-08-21T15:42:22;2.43;;;1.30;;
16033;SDS011;8121;51.418;6.998;2023-08-21T15:47:24;7.53;;;2.10;;
16033;SDS011;8121;51.418;6.998;2023-08-21T15:52:26;4.10;;;1.70;;
16033;SDS011;8121;51.418;6.998;2023-08-21T15:57:27;2.83;;;1.90;;
16033;SDS011;8121;51.418;6.998;2023-08-21T16:02:30;3.10;;;1.97;;
16033;SDS011;8121;51.418;6.998;2023-08-21T16:07:32;3.43;;;1.40;;
16033;SDS011;8121;51.418;6.998;2023-08-21T16:12:34;4.03;;;1.87;;
16033;SDS011;8121;51.418;6.998;2023-08-21T16:17:36;2.03;;;1.50;;
16033;SDS011;8121;51.418;6.998;2023-08-21T16:22:38;7.83;;;1.80;;
16033;SDS011;8121;51.418;6.998;2023-08-21T16:27:39;3.93;;;1.90;;
16033;SDS011;8121;51.418;6.998;2023-08-21T16:32:42;2.20;;;1.50;;
16033;SDS011;8121;51.418;6.998;2023-08-21T16:37:44;4.30;;;1.93;;
16033;SDS011;8121;51.418;6.998;2023-08-21T16:42:46;3.60;;;1.53;;
16033;SDS011;8121;51.418;6.998;2023-08-21T16:47:49;3.97;;;1.90;;
16033;SDS011;8121;51.418;6.998;2023-08-21T16:52:50;3.17;;;1.40;;
16033;SDS011;8121;51.418;6.998;2023-08-21T16:57:52;1.67;;;1.57;;
16033;SDS011;8121;51.418;6.998;2023-08-21T17:02:54;2.60;;;1.03;;
16033;SDS011;8121;51.418;6.998;2023-08-21T17:07:56;1.97;;;1.63;;
16033;SDS011;8121;51.418;6.998;2023-08-21T17:12:58;2.10;;;1.37;;
16033;SDS011;8121;51.418;6.998;2023-08-21T17:18:01;5.80;;;1.30;;
16033;SDS011;8121;51.418;6.998;2023-08-21T17:23:02;2.60;;;1.50;;
16033;SDS011;8121;51.418;6.998;2023-08-21T17:28:04;1.30;;;1.20;;
16033;SDS011;8121;51.418;6.998;2023-08-21T17:33:07;4.10;;;1.67;;
16033;SDS011;8121;51.418;6.998;2023-08-21T17:38:10;2.93;;;1.50;;
16033;SDS011;8121;51.418;6.998;2023-08-21T17:43:11;1.50;;;1.30;;
16033;SDS011;8121;51.418;6.998;2023-08-21T17:48:14;2.27;;;1.37;;
16033;SDS011;8121;51.418;6.998;2023-08-21T17:53:15;1.63;;;1.53;;
16033;SDS011;8121;51.418;6.998;2023-08-21T17:58:17;1.40;;;1.30;;
16033;SDS011;8121;51.418;6.998;2023-08-21T18:03:20;1.20;;;1.10;;
16033;SDS011;8121;51.418;6.998;2023-08-21T18:08:21;1.40;;;1.30;;
16033;SDS011;8121;51.418;6.998;2023-08-21T18:13:23;4.53;;;1.30;;
16033;SDS011;8121;51.418;6.998;2023-08-21T18:18:26;1.63;;;1.30;;
16033;SDS011;8121;51.418;6.998;2023-08-21T18:23:30;3.40;;;1.50;;
16033;SDS011;8121;51.418;6.998;2023-08-21T18:28:32;1.30;;;1.20;;
16033;SDS011;8121;51.418;6.998;2023-08-21T18:33:35;1.37;;;1.27;;
16033;SDS011;8121;51.418;6.998;2023-08-21T18:38:36;3.97;;;1.37;;
16033;SDS011;8121;51.418;6.998;2023-08-21T18:43:38;1.30;;;1.20;;
16033;SDS011;8121;51.418;6.998;2023-08-21T18:48:41;1.50;;;1.40;;
16033;SDS011;8121;51.418;6.998;2023-08-21T18:53:42;1.87;;;1.73;;
16033;SDS011;8121;51.418;6.998;2023-08-21T18:58:44;3.63;;;1.30;;
16033;SDS011;8121;51.418;6.998;2023-08-21T19:03:47;3.47;;;1.50;;
16033;SDS011;8121;51.418;6.998;2023-08-21T19:08:48;1.60;;;1.50;;
16033;SDS011;8121;51.418;6.998;2023-08-21T19:13:50;2.40;;;1.33;;
16033;SDS011;8121;51.418;6.998;2023-08-21T19:18:53;3.23;;;1.47;;
16033;SDS011;8121;51.418;6.998;2023-08-21T19:23:55;1.63;;;1.53;;
16033;SDS011;8121;51.418;6.998;2023-08-21T19:28:56;2.10;;;2.00;;
16033;SDS011;8121;51.418;6.998;2023-08-21T19:33:59;2.40;;;1.40;;
16033;SDS011;8121;51.418;6.998;2023-08-21T19:39:00;2.13;;;1.93;;
16033;SDS011;8121;51.418;6.998;2023-08-21T19:44:03;1.70;;;1.60;;
16033;SDS011;8121;51.418;6.998;2023-08-21T19:49:07;4.10;;;1.60;;
16033;SDS011;8121;51.418;6.998;2023-08-21T19:54:08;4.50;;;2.20;;
16033;SDS011;8121;51.418;6.998;2023-08-21T19:59:10;5.23;;;1.73;;
16033;SDS011;8121;51.418;6.998;2023-08-21T20:04:13;11.73;;;2.10;;
16033;SDS011;8121;51.418;6.998;2023-08-21T20:09:15;3.67;;;2.10;;
16033;SDS011;8121;51.418;6.998;2023-08-21T20:14:16;5.23;;;2.30;;
16033;SDS011;8121;51.418;6.998;2023-08-21T20:19:20;4.33;;;1.83;;
16033;SDS011;8121;51.418;6.998;2023-08-21T20:24:22;2.43;;;1.43;;
16033;SDS011;8121;51.418;6.998;2023-08-21T20:29:24;2.93;;;2.00;;
16033;SDS011;8121;51.418;6.998;2023-08-21T20:34:27;5.87;;;2.00;;
16033;SDS011;8121;51.418;6.998;2023-08-21T20:39:28;2.33;;;2.03;;
16033;SDS011;8121;51.418;6.998;2023-08-21T20:44:30;1.90;;;1.63;;
16033;SDS011;8121;51.418;6.998;2023-08-21T20:49:33;2.33;;;1.50;;
16033;SDS011;8121;51.418;6.998;2023-08-21T20:54:36;2.37;;;2.17;;
16033;SDS011;8121;51.418;6.998;2023-08-21T20:59:37;2.37;;;1.70;;
16033;SDS011;8121;51.418;6.998;2023-08-21T21:04:40;1.90;;;1.80;;
16033;SDS011;8121;51.418;6.998;2023-08-21T21:09:42;4.33;;;2.30;;
16033;SDS011;8121;51.418;6.998;2023-08-21T21:14:43;3.30;;;1.67;;
16033;SDS011;8121;51.418;6.998;2023-08-21T21:19:46;3.53;;;1.60;;
16033;SDS011;8121;51.418;6.998;2023-08-21T21:24:49;1.80;;;1.70;;
16033;SDS011;8121;51.418;6.998;2023-08-21T21:29:50;5.50;;;3.57;;
16033;SDS011;8121;51.418;6.998;2023-08-21T21:34:53;7.17;;;3.53;;
16033;SDS011;8121;51.418;6.998;2023-08-21T21:39:55;15.07;;;3.87;;
16033;SDS011;8121;51.418;6.998;2023-08-21T21:44:57;10.20;;;3.93;;
16033;SDS011;8121;51.418;6.998;2023-08-21T21:50:00;10.80;;;3.70;;
16033;SDS011;8121;51.418;6.998;2023-08-21T21:55:01;5.90;;;3.93;;
16033;SDS011;8121;51.418;6.998;2023-08-21T22:00:03;4.90;;;3.23;;
16033;SDS011;8121;51.418;6.998;2023-08-21T22:05:10;11.43;;;3.27;;
16033;SDS011;8121;51.418;6.998;2023-08-21T22:10:11;6.93;;;2.93;;
16033;SDS011;8121;51.418;6.998;2023-08-21T22:15:13;4.03;;;3.53;;
16033;SDS011;8121;51.418;6.998;2023-08-21T22:20:16;8.97;;;3.30;;
16033;SDS011;8121;51.418;6.998;2023-08-21T22:25:17;4.13;;;3.17;;
16033;SDS011;8121;51.418;6.998;2023-08-21T22:30:19;10.87;;;4.50;;
16033;SDS011;8121;51.418;6.998;2023-08-21T22:35:22;7.83;;;4.10;;
16033;SDS011;8121;51.418;6.998;2023-08-21T22:40:24;10.30;;;3.33;;
16033;SDS011;8121;51.418;6.998;2023-08-21T22:45:28;4.17;;;3.57;;
16033;SDS011;8121;51.418;6.998;2023-08-21T22:50:31;6.70;;;3.50;;
16033;SDS011;8121;51.418;6.998;2023-08-21T22:55:33;4.60;;;3.07;;
16033;SDS011;8121;51.418;6.998;2023-08-21T23:00:36;9.23;;;2.20;;
16033;SDS011;8121;51.418;6.998;2023-08-21T23:05:39;16.53;;;4.33;;
16033;SDS011;8121;51.418;6.998;2023-08-21T23:10:42;8.77;;;2.90;;
16033;SDS011;8121;51.418;6.998;2023-08-21T23:15:44;12.20;;;4.00;;
16033;SDS011;8121;51.418;6.998;2023-08-21T23:20:55;7.03;;;2.93;;
16033;SDS011;8121;51.418;6.998;2023-08-21T23:25:58;4.07;;;3.00;;
16033;SDS011;8121;51.418;6.998;2023-08-21T23:31:00;7.93;;;2.60;;
16033;SDS011;8121;51.418;6.998;2023-08-21T23:36:03;13.80;;;3.47;;
16033;SDS011;8121;51.418;6.998;2023-08-21T23:41:05;8.40;;;2.70;;
16033;SDS011;8121;51.418;6.998;2023-08-21T23:46:07;14.60;;;2.87;;
16033;SDS011;8121;51.418;6.998;2023-08-21T23:51:10;11.40;;;3.30;;
16033;SDS011;8121;51.418;6.998;2023-08-21T23:56:13;6.50;;;2.70;;
